createdAt,value
2023-02-01T00:01:09.840Z,1012.25
2023-02-01T00:03:43.055Z,1012.22
2023-02-01T00:06:15.994Z,1012.19
2023-02-01T00:08:48.997Z,1012.17
2023-02-01T00:11:21.925Z,1012.15
2023-02-01T00:13:55.114Z,1012.14
2023-02-01T00:16:27.720Z,1012.12
2023-02-01T00:19:01.082Z,1012.09
2023-02-01T00:21:34.025Z,1012.09
2023-02-01T00:24:06.980Z,1012.08
2023-02-01T00:26:40.044Z,1012.07
2023-02-01T00:29:13.068Z,1012.05
2023-02-01T00:31:46.031Z,1012.03
2023-02-01T00:34:19.148Z,1011.99
2023-02-01T00:36:52.116Z,1011.96
2023-02-01T00:39:25.089Z,1011.95
2023-02-01T00:41:58.147Z,1011.96
2023-02-01T00:44:31.152Z,1011.96
2023-02-01T00:47:04.129Z,1011.96
2023-02-01T00:49:37.162Z,1011.96
2023-02-01T00:52:10.139Z,1011.95
2023-02-01T00:54:46.974Z,1011.95
2023-02-01T00:57:20.181Z,1011.96
2023-02-01T00:59:53.097Z,1011.97
2023-02-01T01:02:26.143Z,1011.96
2023-02-01T01:04:59.117Z,1011.97
2023-02-01T01:07:32.117Z,1011.96
2023-02-01T01:10:05.167Z,1011.94
2023-02-01T01:12:38.204Z,1011.92
2023-02-01T01:15:11.091Z,1011.91
2023-02-01T01:17:44.179Z,1011.88
2023-02-01T01:20:17.188Z,1011.87
2023-02-01T01:22:50.108Z,1011.87
2023-02-01T01:25:23.244Z,1011.85
2023-02-01T01:27:56.246Z,1011.84
2023-02-01T01:30:29.229Z,1011.83
2023-02-01T01:33:02.125Z,1011.83
2023-02-01T01:35:35.208Z,1011.80
2023-02-01T01:38:08.223Z,1011.79
2023-02-01T01:40:41.118Z,1011.76
2023-02-01T01:43:13.847Z,1011.75
2023-02-01T01:45:47.230Z,1011.73
2023-02-01T01:48:20.132Z,1011.69
2023-02-01T01:50:53.271Z,1011.66
2023-02-01T01:53:26.232Z,1011.66
2023-02-01T01:55:59.176Z,1011.68
2023-02-01T01:58:32.063Z,1011.66
2023-02-01T02:01:05.228Z,1011.65
2023-02-01T02:03:44.175Z,1011.62
2023-02-01T02:06:17.158Z,1011.59
2023-02-01T02:08:50.089Z,1011.57
2023-02-01T02:11:23.253Z,1011.54
2023-02-01T02:13:56.291Z,1011.52
2023-02-01T02:16:29.524Z,1011.49
2023-02-01T02:19:03.260Z,1011.46
2023-02-01T02:21:36.191Z,1011.44
2023-02-01T02:24:09.212Z,1011.43
2023-02-01T02:26:42.297Z,1011.41
2023-02-01T02:29:15.143Z,1011.37
2023-02-01T02:31:48.264Z,1011.31
2023-02-01T02:34:21.340Z,1011.28
2023-02-01T02:36:54.112Z,1011.24
2023-02-01T02:39:27.311Z,1011.19
2023-02-01T02:42:00.214Z,1011.13
2023-02-01T02:44:33.320Z,1011.09
2023-02-01T02:47:20.156Z,1011.05
2023-02-01T02:49:53.348Z,1011.04
2023-02-01T02:52:26.275Z,1011.02
2023-02-01T02:54:59.293Z,1011.02
2023-02-01T02:57:32.241Z,1011.00
2023-02-01T03:00:05.370Z,1010.99
2023-02-01T03:02:38.284Z,1010.99
2023-02-01T03:05:10.979Z,1011.00
2023-02-01T03:07:44.358Z,1010.98
2023-02-01T03:10:16.960Z,1010.99
2023-02-01T03:12:50.200Z,1010.99
2023-02-01T03:15:23.258Z,1010.99
2023-02-01T03:18:10.289Z,1010.97
2023-02-01T03:20:43.190Z,1010.96
2023-02-01T03:23:16.431Z,1010.95
2023-02-01T03:25:49.260Z,1010.93
2023-02-01T03:28:22.441Z,1010.92
2023-02-01T03:30:55.499Z,1010.91
2023-02-01T03:33:28.316Z,1010.91
2023-02-01T03:36:01.278Z,1010.89
2023-02-01T03:38:34.301Z,1010.88
2023-02-01T03:41:07.288Z,1010.88
2023-02-01T03:43:40.464Z,1010.89
2023-02-01T03:49:03.370Z,1010.93
2023-02-01T03:51:36.356Z,1010.95
2023-02-01T03:54:09.360Z,1010.97
2023-02-01T03:56:42.444Z,1010.97
2023-02-01T03:59:15.402Z,1011.00
2023-02-01T04:01:48.326Z,1011.01
2023-02-01T04:04:21.484Z,1011.04
2023-02-01T04:06:54.361Z,1011.06
2023-02-01T04:09:27.610Z,1011.08
2023-02-01T04:12:00.308Z,1011.11
2023-02-01T04:14:47.306Z,1011.12
2023-02-01T04:17:20.324Z,1011.13
2023-02-01T04:19:55.412Z,1011.16
2023-02-01T04:22:26.493Z,1011.18
2023-02-01T04:24:59.583Z,1011.19
2023-02-01T04:27:33.492Z,1011.21
2023-02-01T04:30:06.441Z,1011.21
2023-02-01T04:32:39.510Z,1011.23
2023-02-01T04:35:12.422Z,1011.24
2023-02-01T04:37:45.167Z,1011.25
2023-02-01T04:40:18.144Z,1011.25
2023-02-01T04:42:51.212Z,1011.22
2023-02-01T04:45:24.124Z,1011.22
2023-02-01T04:47:57.434Z,1011.21
2023-02-01T04:50:44.366Z,1011.19
2023-02-01T04:53:17.220Z,1011.16
2023-02-01T04:55:50.329Z,1011.14
2023-02-01T04:58:23.537Z,1011.14
2023-02-01T05:00:56.590Z,1011.12
2023-02-01T05:03:29.565Z,1011.08
2023-02-01T05:06:02.516Z,1011.10
2023-02-01T05:08:37.805Z,1011.14
2023-02-01T05:11:08.195Z,1011.16
2023-02-01T05:13:41.246Z,1011.18
2023-02-01T05:16:14.208Z,1011.18
2023-02-01T05:18:49.185Z,1011.14
2023-02-01T05:21:22.455Z,1011.14
2023-02-01T05:23:55.274Z,1011.14
2023-02-01T05:26:28.406Z,1011.16
2023-02-01T05:29:01.471Z,1011.17
2023-02-01T05:31:34.705Z,1011.14
2023-02-01T05:34:07.580Z,1011.14
2023-02-01T05:36:46.254Z,1011.12
2023-02-01T05:39:19.540Z,1011.09
2023-02-01T05:41:52.473Z,1011.03
2023-02-01T05:44:25.749Z,1011.01
2023-02-01T05:46:59.611Z,1010.97
2023-02-01T05:49:32.281Z,1010.93
2023-02-01T05:52:05.257Z,1010.91
2023-02-01T05:54:38.653Z,1010.87
2023-02-01T05:57:11.568Z,1010.84
2023-02-01T05:59:44.270Z,1010.80
2023-02-01T06:02:17.689Z,1010.79
2023-02-01T06:04:50.513Z,1010.83
2023-02-01T06:07:23.388Z,1010.86
2023-02-01T06:09:56.383Z,1010.89
2023-02-01T06:12:29.670Z,1010.91
2023-02-01T06:15:02.357Z,1010.93
2023-02-01T06:17:35.315Z,1010.94
2023-02-01T06:20:09.203Z,1010.95
2023-02-01T06:22:41.454Z,1010.95
2023-02-01T06:25:14.295Z,1010.94
2023-02-01T06:27:47.496Z,1010.93
2023-02-01T06:30:26.445Z,1010.92
2023-02-01T06:32:59.508Z,1010.92
2023-02-01T06:35:35.017Z,1010.92
2023-02-01T06:38:08.793Z,1010.94
2023-02-01T06:40:41.379Z,1010.95
2023-02-01T06:43:14.507Z,1010.98
2023-02-01T06:45:47.582Z,1010.97
2023-02-01T06:48:20.712Z,1010.97
2023-02-01T06:50:53.431Z,1010.99
2023-02-01T06:53:26.753Z,1011.00
2023-02-01T06:55:59.664Z,1011.01
2023-02-01T06:58:32.411Z,1011.04
2023-02-01T07:01:05.855Z,1011.06
2023-02-01T07:03:39.758Z,1011.09
2023-02-01T07:06:12.729Z,1011.11
2023-02-01T07:08:45.657Z,1011.13
2023-02-01T07:11:18.635Z,1011.14
2023-02-01T07:13:51.690Z,1011.16
2023-02-01T07:16:24.439Z,1011.16
2023-02-01T07:18:57.618Z,1011.14
2023-02-01T07:21:30.677Z,1011.15
2023-02-01T07:24:03.830Z,1011.15
2023-02-01T07:26:36.831Z,1011.12
2023-02-01T07:29:09.755Z,1011.07
2023-02-01T07:31:42.650Z,1011.04
2023-02-01T07:34:15.702Z,1011.05
2023-02-01T07:36:48.668Z,1011.06
2023-02-01T07:39:21.809Z,1011.09
2023-02-01T07:41:54.777Z,1011.09
2023-02-01T07:44:27.654Z,1011.10
2023-02-01T07:47:00.671Z,1011.12
2023-02-01T07:49:37.567Z,1011.14
2023-02-01T07:52:10.819Z,1011.17
2023-02-01T07:54:43.702Z,1011.20
2023-02-01T07:57:16.811Z,1011.23
2023-02-01T07:59:49.858Z,1011.26
2023-02-01T08:02:22.747Z,1011.31
2023-02-01T08:04:55.826Z,1011.37
2023-02-01T08:07:28.735Z,1011.43
2023-02-01T08:10:01.764Z,1011.48
2023-02-01T08:12:34.806Z,1011.52
2023-02-01T08:15:07.857Z,1011.55
2023-02-01T08:17:40.786Z,1011.56
2023-02-01T08:20:13.819Z,1011.58
2023-02-01T08:22:46.827Z,1011.61
2023-02-01T08:25:19.882Z,1011.61
2023-02-01T08:27:52.834Z,1011.65
2023-02-01T08:30:26.021Z,1011.66
2023-02-01T08:32:58.815Z,1011.69
2023-02-01T08:35:42.722Z,1011.73
2023-02-01T08:38:04.791Z,1011.74
2023-02-01T08:40:37.517Z,1011.74
2023-02-01T08:43:10.926Z,1011.74
2023-02-01T08:45:45.030Z,1011.74
2023-02-01T08:48:17.853Z,1011.71
2023-02-01T08:50:50.763Z,1011.73
2023-02-01T08:53:23.776Z,1011.74
2023-02-01T08:55:56.796Z,1011.76
2023-02-01T08:58:29.898Z,1011.76
2023-02-01T09:01:02.824Z,1011.76
2023-02-01T09:03:35.967Z,1011.77
2023-02-01T09:06:22.866Z,1011.77
2023-02-01T09:08:55.913Z,1011.76
2023-02-01T09:11:28.853Z,1011.78
2023-02-01T09:14:01.909Z,1011.80
2023-02-01T09:16:36.932Z,1011.81
2023-02-01T09:19:26.458Z,1011.83
2023-02-01T09:21:56.917Z,1011.82
2023-02-01T09:24:29.953Z,1011.82
2023-02-01T09:27:03.031Z,1011.82
2023-02-01T09:29:35.954Z,1011.82
2023-02-01T09:32:08.956Z,1011.85
2023-02-01T09:34:41.839Z,1011.89
2023-02-01T09:37:14.966Z,1011.92
2023-02-01T09:39:47.880Z,1011.97
2023-02-01T09:42:21.011Z,1011.99
2023-02-01T09:44:53.975Z,1012.03
2023-02-01T09:47:26.978Z,1012.08
2023-02-01T09:49:59.883Z,1012.14
2023-02-01T09:52:32.982Z,1012.21
2023-02-01T09:55:05.996Z,1012.27
2023-02-01T09:57:38.884Z,1012.33
2023-02-01T10:00:13.855Z,1012.36
2023-02-01T10:02:46.862Z,1012.43
2023-02-01T10:05:20.007Z,1012.49
2023-02-01T10:07:53.011Z,1012.53
2023-02-01T10:10:26.266Z,1012.57
2023-02-01T10:12:59.908Z,1012.60
2023-02-01T10:15:33.022Z,1012.63
2023-02-01T10:18:05.860Z,1012.66
2023-02-01T10:20:38.833Z,1012.69
2023-02-01T10:23:27.359Z,1012.72
2023-02-01T10:25:44.932Z,1012.73
2023-02-01T10:28:17.955Z,1012.74
2023-02-01T10:30:51.067Z,1012.75
2023-02-01T10:33:23.944Z,1012.74
2023-02-01T10:35:57.049Z,1012.72
2023-02-01T10:38:30.002Z,1012.72
2023-02-01T10:41:03.035Z,1012.70
2023-02-01T10:43:35.995Z,1012.68
2023-02-01T10:46:09.100Z,1012.66
2023-02-01T10:48:42.043Z,1012.63
2023-02-01T10:51:15.003Z,1012.60
2023-02-01T10:53:47.896Z,1012.58
2023-02-01T10:56:21.061Z,1012.55
2023-02-01T10:58:53.929Z,1012.52
2023-02-01T11:01:27.046Z,1012.49
2023-02-01T11:04:00.005Z,1012.43
2023-02-01T11:06:33.040Z,1012.34
2023-02-01T11:09:06.020Z,1012.29
2023-02-01T11:11:39.154Z,1012.26
2023-02-01T11:14:13.044Z,1012.23
2023-02-01T11:16:46.036Z,1012.18
2023-02-01T11:19:19.042Z,1012.15
2023-02-01T11:21:51.760Z,1012.12
2023-02-01T11:24:24.818Z,1012.07
2023-02-01T11:26:57.768Z,1012.04
2023-02-01T11:29:30.985Z,1012.02
2023-02-01T11:32:03.849Z,1012.01
2023-02-01T11:34:36.767Z,1012.00
2023-02-01T11:37:09.996Z,1011.98
2023-02-01T11:39:42.908Z,1011.96
2023-02-01T11:42:15.827Z,1011.94
2023-02-01T11:44:48.832Z,1011.93
2023-02-01T11:47:22.060Z,1011.91
2023-02-01T11:49:55.152Z,1011.90
2023-02-01T11:52:28.149Z,1011.90
2023-02-01T11:55:01.173Z,1011.90
2023-02-01T11:57:34.092Z,1011.90
2023-02-01T12:00:07.105Z,1011.91
2023-02-01T12:02:40.136Z,1011.92
2023-02-01T12:05:13.090Z,1011.93
2023-02-01T12:07:46.172Z,1011.92
2023-02-01T12:10:18.824Z,1011.90
2023-02-01T12:12:52.080Z,1011.89
2023-02-01T12:15:25.146Z,1011.89
2023-02-01T12:17:57.891Z,1011.88
2023-02-01T12:20:31.188Z,1011.88
2023-02-01T12:23:04.086Z,1011.87
2023-02-01T12:25:37.145Z,1011.86
2023-02-01T12:28:10.216Z,1011.86
2023-02-01T12:30:43.031Z,1011.85
2023-02-01T12:33:16.069Z,1011.83
2023-02-01T12:35:49.208Z,1011.82
2023-02-01T12:38:22.078Z,1011.80
2023-02-01T12:40:55.124Z,1011.76
2023-02-01T12:43:28.201Z,1011.72
2023-02-01T12:46:02.913Z,1011.68
2023-02-01T12:48:36.109Z,1011.66
2023-02-01T12:51:09.146Z,1011.62
2023-02-01T12:53:42.112Z,1011.60
2023-02-01T12:56:15.177Z,1011.54
2023-02-01T12:59:01.823Z,1011.49
2023-02-01T13:01:34.919Z,1011.45
2023-02-01T13:04:07.892Z,1011.37
2023-02-01T13:06:40.943Z,1011.31
2023-02-01T13:09:13.888Z,1011.27
2023-02-01T13:11:46.960Z,1011.23
2023-02-01T13:14:19.958Z,1011.18
2023-02-01T13:16:53.077Z,1011.16
2023-02-01T13:19:26.014Z,1011.11
2023-02-01T13:21:59.084Z,1011.07
2023-02-01T13:24:31.945Z,1011.02
2023-02-01T13:27:05.198Z,1011.01
2023-02-01T13:29:38.172Z,1010.98
2023-02-01T13:32:11.009Z,1010.94
2023-02-01T13:34:43.999Z,1010.94
2023-02-01T13:37:16.950Z,1010.93
2023-02-01T13:39:49.955Z,1010.91
2023-02-01T13:42:23.255Z,1010.88
2023-02-01T13:44:56.259Z,1010.86
2023-02-01T13:47:29.024Z,1010.86
2023-02-01T13:50:02.177Z,1010.87
2023-02-01T13:52:35.326Z,1010.91
2023-02-01T13:55:08.277Z,1010.93
2023-02-01T13:57:40.993Z,1010.93
2023-02-01T14:00:22.545Z,1010.93
2023-02-01T14:02:56.052Z,1010.95
2023-02-01T14:05:29.304Z,1010.99
2023-02-01T14:08:01.968Z,1011.01
2023-02-01T14:10:41.064Z,1011.02
2023-02-01T14:13:14.001Z,1011.00
2023-02-01T14:15:47.024Z,1011.00
2023-02-01T14:18:20.401Z,1010.97
2023-02-01T14:20:53.310Z,1010.97
2023-02-01T14:23:26.374Z,1010.97
2023-02-01T14:25:59.129Z,1010.99
2023-02-01T14:28:32.051Z,1011.02
2023-02-01T14:31:05.135Z,1011.05
2023-02-01T14:33:38.114Z,1011.07
2023-02-01T14:36:11.047Z,1011.06
2023-02-01T14:38:57.948Z,1011.06
2023-02-01T14:41:31.312Z,1011.05
2023-02-01T14:44:04.329Z,1011.03
2023-02-01T14:46:37.393Z,1010.99
2023-02-01T14:49:10.293Z,1010.94
2023-02-01T14:51:43.452Z,1010.91
2023-02-01T14:54:16.062Z,1010.88
2023-02-01T14:56:49.343Z,1010.86
2023-02-01T14:59:22.055Z,1010.85
2023-02-01T15:01:55.459Z,1010.84
2023-02-01T15:04:28.234Z,1010.84
2023-02-01T15:07:01.366Z,1010.86
2023-02-01T15:09:34.096Z,1010.87
2023-02-01T15:12:07.142Z,1010.88
2023-02-01T15:14:40.472Z,1010.87
2023-02-01T15:17:13.111Z,1010.85
2023-02-01T15:19:46.255Z,1010.84
2023-02-01T15:22:19.364Z,1010.82
2023-02-01T15:24:52.534Z,1010.80
2023-02-01T15:27:26.476Z,1010.81
2023-02-01T15:29:59.157Z,1010.81
2023-02-01T15:32:32.442Z,1010.81
2023-02-01T15:35:05.430Z,1010.83
2023-02-01T15:37:38.415Z,1010.84
2023-02-01T15:40:11.383Z,1010.86
2023-02-01T15:42:44.381Z,1010.87
2023-02-01T15:45:17.386Z,1010.89
2023-02-01T15:47:50.209Z,1010.90
2023-02-01T15:50:25.201Z,1010.91
2023-02-01T15:52:56.734Z,1010.92
2023-02-01T15:55:29.548Z,1010.94
2023-02-01T15:58:02.453Z,1010.97
2023-02-01T16:00:35.291Z,1011.00
2023-02-01T16:03:08.629Z,1011.01
2023-02-01T16:05:41.364Z,1011.01
2023-02-01T16:08:14.167Z,1010.99
2023-02-01T16:10:47.221Z,1010.96
2023-02-01T16:13:20.362Z,1010.93
2023-02-01T16:15:53.250Z,1010.91
2023-02-01T16:18:26.576Z,1010.91
2023-02-01T16:20:59.235Z,1010.89
2023-02-01T16:23:32.620Z,1010.87
2023-02-01T16:26:05.183Z,1010.87
2023-02-01T16:28:38.207Z,1010.87
2023-02-01T16:31:11.357Z,1010.89
2023-02-01T16:33:44.400Z,1010.91
2023-02-01T16:36:17.436Z,1010.93
2023-02-01T16:38:50.250Z,1010.94
2023-02-01T16:41:23.210Z,1010.94
2023-02-01T16:43:56.345Z,1010.96
2023-02-01T16:46:29.259Z,1010.96
2023-02-01T16:49:02.278Z,1010.97
2023-02-01T16:51:36.280Z,1011.00
2023-02-01T16:54:09.259Z,1011.03
2023-02-01T16:56:45.218Z,1011.06
2023-02-01T16:59:18.443Z,1011.09
2023-02-01T17:01:51.499Z,1011.11
2023-02-01T17:04:24.396Z,1011.13
2023-02-01T17:06:57.300Z,1011.13
2023-02-01T17:09:30.278Z,1011.10
2023-02-01T17:12:03.297Z,1011.09
2023-02-01T17:14:37.452Z,1011.09
2023-02-01T17:17:09.387Z,1011.07
2023-02-01T17:19:42.307Z,1011.05
2023-02-01T17:22:15.291Z,1011.03
2023-02-01T17:24:49.218Z,1011.02
2023-02-01T17:27:21.612Z,1011.01
2023-02-01T17:29:54.546Z,1010.99
2023-02-01T17:32:41.296Z,1010.97
2023-02-01T17:35:14.326Z,1010.94
2023-02-01T17:37:47.561Z,1010.93
2023-02-01T17:40:20.520Z,1010.93
2023-02-01T17:42:53.314Z,1010.94
2023-02-01T17:45:26.677Z,1010.95
2023-02-01T17:47:59.355Z,1010.96
2023-02-01T17:50:32.341Z,1010.97
2023-02-01T17:53:05.349Z,1010.98
2023-02-01T17:55:38.358Z,1010.99
2023-02-01T17:58:11.510Z,1011.01
2023-02-01T18:00:44.545Z,1011.01
2023-02-01T18:03:17.364Z,1011.01
2023-02-01T18:05:50.406Z,1011.03
2023-02-01T18:08:23.405Z,1011.02
2023-02-01T18:10:56.442Z,1011.01
2023-02-01T18:13:29.401Z,1010.99
2023-02-01T18:16:02.385Z,1010.99
2023-02-01T18:18:37.356Z,1010.98
2023-02-01T18:21:08.378Z,1010.99
2023-02-01T18:23:41.424Z,1010.99
2023-02-01T18:26:14.423Z,1011.01
2023-02-01T18:28:47.391Z,1011.01
2023-02-01T18:31:20.474Z,1011.03
2023-02-01T18:33:53.447Z,1011.04
2023-02-01T18:36:26.398Z,1011.06
2023-02-01T18:38:59.547Z,1011.07
2023-02-01T18:41:32.491Z,1011.07
2023-02-01T18:44:05.487Z,1011.08
2023-02-01T18:46:38.569Z,1011.09
2023-02-01T18:49:11.410Z,1011.12
2023-02-01T18:51:44.601Z,1011.13
2023-02-01T18:54:17.527Z,1011.15
2023-02-01T18:56:50.575Z,1011.15
2023-02-01T18:59:23.567Z,1011.16
2023-02-01T19:01:56.448Z,1011.15
2023-02-01T19:04:29.658Z,1011.14
2023-02-01T19:07:02.590Z,1011.15
2023-02-01T19:09:35.606Z,1011.12
2023-02-01T19:12:08.760Z,1011.10
2023-02-01T19:17:31.605Z,1011.11
2023-02-01T19:20:04.580Z,1011.10
2023-02-01T19:22:43.607Z,1011.13
2023-02-01T19:25:30.621Z,1011.13
2023-02-01T19:28:03.595Z,1011.15
2023-02-01T19:30:36.727Z,1011.15
2023-02-01T19:33:09.529Z,1011.16
2023-02-01T19:35:42.663Z,1011.16
2023-02-01T19:38:15.729Z,1011.17
2023-02-01T19:40:48.644Z,1011.15
2023-02-01T19:43:21.762Z,1011.13
2023-02-01T19:45:54.602Z,1011.10
2023-02-01T19:48:30.213Z,1011.10
2023-02-01T19:51:00.817Z,1011.13
2023-02-01T19:53:33.769Z,1011.15
2023-02-01T19:56:06.576Z,1011.17
2023-02-01T19:58:39.646Z,1011.20
2023-02-01T20:01:11.749Z,1011.21
2023-02-01T20:03:44.720Z,1011.22
2023-02-01T20:06:18.958Z,1011.26
2023-02-01T20:08:51.079Z,1011.28
2023-02-01T20:11:23.775Z,1011.31
2023-02-01T20:13:57.065Z,1011.33
2023-02-01T20:16:30.124Z,1011.35
2023-02-01T20:19:02.890Z,1011.39
2023-02-01T20:21:38.911Z,1011.42
2023-02-01T20:24:11.850Z,1011.42
2023-02-01T20:26:45.820Z,1011.44
2023-02-01T20:29:24.500Z,1011.49
2023-02-01T20:31:57.847Z,1011.51
2023-02-01T20:34:30.797Z,1011.55
2023-02-01T20:37:03.747Z,1011.59
2023-02-01T20:39:37.005Z,1011.62
2023-02-01T20:42:09.726Z,1011.62
2023-02-01T20:44:43.281Z,1011.60
2023-02-01T20:47:16.648Z,1011.58
2023-02-01T20:49:52.648Z,1011.56
2023-02-01T20:52:25.741Z,1011.55
2023-02-01T20:54:59.124Z,1011.51
2023-02-01T20:57:32.847Z,1011.49
2023-02-01T21:00:05.809Z,1011.46
2023-02-01T21:02:39.020Z,1011.44
2023-02-01T21:05:11.940Z,1011.42
2023-02-01T21:07:44.939Z,1011.42
2023-02-01T21:10:17.661Z,1011.40
2023-02-01T21:13:01.053Z,1011.39
2023-02-01T21:15:26.715Z,1011.40
2023-02-01T21:17:59.689Z,1011.41
2023-02-01T21:20:32.733Z,1011.41
2023-02-01T21:23:05.956Z,1011.42
2023-02-01T21:25:38.979Z,1011.44
2023-02-01T21:28:11.979Z,1011.45
2023-02-01T21:30:45.137Z,1011.45
2023-02-01T21:33:17.993Z,1011.46
2023-02-01T21:35:51.094Z,1011.47
2023-02-01T21:38:24.011Z,1011.50
2023-02-01T21:40:57.024Z,1011.51
2023-02-01T21:43:29.899Z,1011.51
2023-02-01T21:46:02.867Z,1011.54
2023-02-01T21:49:04.168Z,1011.56
2023-02-01T21:51:08.735Z,1011.57
2023-02-01T21:53:42.413Z,1011.60
2023-02-01T21:56:15.059Z,1011.61
2023-02-01T21:58:48.182Z,1011.60
2023-02-01T22:01:21.163Z,1011.59
2023-02-01T22:03:54.005Z,1011.60
2023-02-01T22:06:27.096Z,1011.59
2023-02-01T22:09:00.023Z,1011.59
2023-02-01T22:11:36.066Z,1011.61
2023-02-01T22:14:09.063Z,1011.62
2023-02-01T22:16:42.060Z,1011.62
2023-02-01T22:19:15.070Z,1011.64
2023-02-01T22:21:48.135Z,1011.65
2023-02-01T22:24:21.077Z,1011.67
2023-02-01T22:26:54.079Z,1011.67
2023-02-01T22:29:27.085Z,1011.70
2023-02-01T22:32:00.146Z,1011.71
2023-02-01T22:34:33.176Z,1011.71
2023-02-01T22:37:06.062Z,1011.71
2023-02-01T22:39:39.195Z,1011.69
2023-02-01T22:42:12.085Z,1011.69
2023-02-01T22:44:45.205Z,1011.67
2023-02-01T22:47:18.193Z,1011.65
2023-02-01T22:49:51.149Z,1011.62
2023-02-01T22:52:24.193Z,1011.59
2023-02-01T22:54:57.192Z,1011.54
2023-02-01T22:57:30.126Z,1011.53
2023-02-01T23:00:03.215Z,1011.52
2023-02-01T23:02:37.923Z,1011.50
2023-02-01T23:05:09.125Z,1011.51
2023-02-01T23:07:42.075Z,1011.52
2023-02-01T23:10:15.101Z,1011.52
2023-02-01T23:12:48.093Z,1011.55
2023-02-01T23:15:21.427Z,1011.55
2023-02-01T23:17:54.224Z,1011.56
2023-02-01T23:20:27.190Z,1011.56
2023-02-01T23:23:00.145Z,1011.55
2023-02-01T23:25:33.022Z,1011.54
2023-02-01T23:28:05.977Z,1011.53
2023-02-01T23:30:39.011Z,1011.53
2023-02-01T23:33:12.096Z,1011.52
2023-02-01T23:35:44.992Z,1011.50
2023-02-01T23:38:18.118Z,1011.51
2023-02-01T23:40:51.222Z,1011.53
2023-02-01T23:43:24.103Z,1011.53
2023-02-01T23:45:57.278Z,1011.55
2023-02-01T23:48:30.180Z,1011.55
2023-02-01T23:51:03.188Z,1011.54
2023-02-01T23:53:36.123Z,1011.53
2023-02-01T23:56:15.197Z,1011.53
2023-02-01T23:58:48.122Z,1011.52
